sensor_id;sensor_type;location;lat;lon;timestamp;P1;durP1;ratioP1;P2;durP2;ratioP2
75892;SDS011;64572;50.950;3.676;2022-11-15T00:00:04;33.83;;;19.88;;
75892;SDS011;64572;50.950;3.676;2022-11-15T00:02:48;35.08;;;17.83;;
75892;SDS011;64572;50.950;3.676;2022-11-15T00:05:34;38.33;;;20.85;;
75892;SDS011;64572;50.950;3.676;2022-11-15T00:08:18;36.00;;;20.67;;
75892;SDS011;64572;50.950;3.676;2022-11-15T00:11:03;39.22;;;19.70;;
75892;SDS011;64572;50.950;3.676;2022-11-15T00:13:47;33.55;;;20.08;;
75892;SDS011;64572;50.950;3.676;2022-11-15T00:16:31;33.72;;;19.20;;
75892;SDS011;64572;50.950;3.676;2022-11-15T00:19:15;33.50;;;20.00;;
75892;SDS011;64572;50.950;3.676;2022-11-15T00:21:59;32.85;;;18.85;;
75892;SDS011;64572;50.950;3.676;2022-11-15T00:24:43;33.35;;;18.42;;
75892;SDS011;64572;50.950;3.676;2022-11-15T00:27:27;39.35;;;21.20;;
75892;SDS011;64572;50.950;3.676;2022-11-15T00:30:12;34.80;;;20.52;;
75892;SDS011;64572;50.950;3.676;2022-11-15T00:32:56;36.85;;;19.77;;
75892;SDS011;64572;50.950;3.676;2022-11-15T00:35:40;35.72;;;20.85;;
75892;SDS011;64572;50.950;3.676;2022-11-15T00:38:24;38.10;;;23.20;;
75892;SDS011;64572;50.950;3.676;2022-11-15T00:41:08;39.60;;;22.25;;
75892;SDS011;64572;50.950;3.676;2022-11-15T00:43:52;37.45;;;23.55;;
75892;SDS011;64572;50.950;3.676;2022-11-15T00:46:36;41.45;;;22.65;;
75892;SDS011;64572;50.950;3.676;2022-11-15T00:49:20;36.88;;;22.85;;
75892;SDS011;64572;50.950;3.676;2022-11-15T00:52:05;40.75;;;23.23;;
75892;SDS011;64572;50.950;3.676;2022-11-15T00:54:49;40.33;;;22.52;;
75892;SDS011;64572;50.950;3.676;2022-11-15T00:57:33;41.28;;;21.92;;
75892;SDS011;64572;50.950;3.676;2022-11-15T01:00:17;40.63;;;21.65;;
75892;SDS011;64572;50.950;3.676;2022-11-15T01:03:01;36.30;;;20.27;;
75892;SDS011;64572;50.950;3.676;2022-11-15T01:05:45;44.78;;;22.67;;
75892;SDS011;64572;50.950;3.676;2022-11-15T01:08:29;35.90;;;20.77;;
75892;SDS011;64572;50.950;3.676;2022-11-15T01:11:13;35.80;;;19.52;;
75892;SDS011;64572;50.950;3.676;2022-11-15T01:13:57;42.13;;;21.20;;
75892;SDS011;64572;50.950;3.676;2022-11-15T01:16:41;38.47;;;20.15;;
75892;SDS011;64572;50.950;3.676;2022-11-15T01:19:26;35.63;;;19.15;;
75892;SDS011;64572;50.950;3.676;2022-11-15T01:22:10;36.95;;;20.77;;
75892;SDS011;64572;50.950;3.676;2022-11-15T01:24:54;37.28;;;19.15;;
75892;SDS011;64572;50.950;3.676;2022-11-15T01:27:38;32.42;;;18.05;;
75892;SDS011;64572;50.950;3.676;2022-11-15T01:30:22;29.08;;;16.85;;
75892;SDS011;64572;50.950;3.676;2022-11-15T01:33:06;31.05;;;17.23;;
75892;SDS011;64572;50.950;3.676;2022-11-15T01:35:50;30.42;;;16.10;;
75892;SDS011;64572;50.950;3.676;2022-11-15T01:38:34;33.65;;;18.50;;
75892;SDS011;64572;50.950;3.676;2022-11-15T01:41:22;30.50;;;13.95;;
75892;SDS011;64572;50.950;3.676;2022-11-15T01:50:15;32.55;;;15.70;;
75892;SDS011;64572;50.950;3.676;2022-11-15T01:53:03;34.53;;;16.27;;
75892;SDS011;64572;50.950;3.676;2022-11-15T01:55:47;29.92;;;15.55;;
75892;SDS011;64572;50.950;3.676;2022-11-15T01:58:31;31.60;;;14.63;;
75892;SDS011;64572;50.950;3.676;2022-11-15T02:01:16;32.45;;;14.20;;
75892;SDS011;64572;50.950;3.676;2022-11-15T02:04:16;25.95;;;13.80;;
75892;SDS011;64572;50.950;3.676;2022-11-15T02:07:08;27.23;;;12.32;;
75892;SDS011;64572;50.950;3.676;2022-11-15T02:09:54;21.95;;;12.95;;
75892;SDS011;64572;50.950;3.676;2022-11-15T02:12:40;27.23;;;13.55;;
75892;SDS011;64572;50.950;3.676;2022-11-15T02:15:26;25.23;;;12.73;;
75892;SDS011;64572;50.950;3.676;2022-11-15T02:18:24;26.95;;;11.85;;
75892;SDS011;64572;50.950;3.676;2022-11-15T02:21:22;23.38;;;11.38;;
75892;SDS011;64572;50.950;3.676;2022-11-15T02:30:44;23.67;;;10.00;;
75892;SDS011;64572;50.950;3.676;2022-11-15T02:42:21;22.42;;;10.60;;
75892;SDS011;64572;50.950;3.676;2022-11-15T02:45:10;24.73;;;9.90;;
75892;SDS011;64572;50.950;3.676;2022-11-15T02:48:00;25.45;;;10.02;;
75892;SDS011;64572;50.950;3.676;2022-11-15T02:50:46;23.00;;;10.05;;
75892;SDS011;64572;50.950;3.676;2022-11-15T02:53:31;25.45;;;9.55;;
75892;SDS011;64572;50.950;3.676;2022-11-15T02:56:15;27.75;;;10.02;;
75892;SDS011;64572;50.950;3.676;2022-11-15T02:59:02;25.50;;;9.23;;
75892;SDS011;64572;50.950;3.676;2022-11-15T03:02:04;23.98;;;9.10;;
75892;SDS011;64572;50.950;3.676;2022-11-15T03:05:14;20.63;;;9.13;;
75892;SDS011;64572;50.950;3.676;2022-11-15T03:11:26;22.98;;;9.98;;
75892;SDS011;64572;50.950;3.676;2022-11-15T03:14:29;23.05;;;8.80;;
75892;SDS011;64572;50.950;3.676;2022-11-15T03:20:12;19.55;;;8.45;;
75892;SDS011;64572;50.950;3.676;2022-11-15T03:23:05;18.17;;;7.30;;
75892;SDS011;64572;50.950;3.676;2022-11-15T03:25:51;17.85;;;7.22;;
75892;SDS011;64572;50.950;3.676;2022-11-15T03:28:39;22.10;;;8.02;;
75892;SDS011;64572;50.950;3.676;2022-11-15T03:31:26;18.70;;;8.48;;
75892;SDS011;64572;50.950;3.676;2022-11-15T03:34:16;19.60;;;7.43;;
75892;SDS011;64572;50.950;3.676;2022-11-15T03:37:06;20.52;;;7.65;;
75892;SDS011;64572;50.950;3.676;2022-11-15T03:39:52;17.35;;;7.60;;
75892;SDS011;64572;50.950;3.676;2022-11-15T03:42:38;20.60;;;8.05;;
75892;SDS011;64572;50.950;3.676;2022-11-15T03:45:28;20.30;;;8.30;;
75892;SDS011;64572;50.950;3.676;2022-11-15T03:48:23;20.55;;;7.82;;
75892;SDS011;64572;50.950;3.676;2022-11-15T03:51:09;20.60;;;7.65;;
75892;SDS011;64572;50.950;3.676;2022-11-15T03:53:54;21.60;;;7.85;;
75892;SDS011;64572;50.950;3.676;2022-11-15T03:56:39;25.00;;;8.32;;
75892;SDS011;64572;50.950;3.676;2022-11-15T03:59:23;22.65;;;7.93;;
75892;SDS011;64572;50.950;3.676;2022-11-15T04:02:07;26.33;;;8.27;;
75892;SDS011;64572;50.950;3.676;2022-11-15T04:04:51;24.15;;;7.90;;
75892;SDS011;64572;50.950;3.676;2022-11-15T04:07:35;17.40;;;7.65;;
75892;SDS011;64572;50.950;3.676;2022-11-15T04:10:19;21.80;;;7.35;;
75892;SDS011;64572;50.950;3.676;2022-11-15T04:13:03;26.02;;;7.82;;
75892;SDS011;64572;50.950;3.676;2022-11-15T04:15:47;22.33;;;9.05;;
75892;SDS011;64572;50.950;3.676;2022-11-15T04:18:31;17.88;;;6.63;;
75892;SDS011;64572;50.950;3.676;2022-11-15T04:21:15;16.75;;;6.85;;
75892;SDS011;64572;50.950;3.676;2022-11-15T04:23:59;20.77;;;6.15;;
75892;SDS011;64572;50.950;3.676;2022-11-15T04:26:43;18.88;;;6.55;;
75892;SDS011;64572;50.950;3.676;2022-11-15T04:29:27;18.77;;;5.60;;
75892;SDS011;64572;50.950;3.676;2022-11-15T04:32:11;19.65;;;5.30;;
75892;SDS011;64572;50.950;3.676;2022-11-15T04:34:55;16.20;;;5.68;;
75892;SDS011;64572;50.950;3.676;2022-11-15T04:37:39;20.55;;;5.88;;
75892;SDS011;64572;50.950;3.676;2022-11-15T04:40:05;21.15;;;5.68;;
75892;SDS011;64572;50.950;3.676;2022-11-15T04:42:31;17.30;;;5.57;;
75892;SDS011;64572;50.950;3.676;2022-11-15T04:44:57;18.73;;;5.88;;
75892;SDS011;64572;50.950;3.676;2022-11-15T04:47:23;20.67;;;7.18;;
75892;SDS011;64572;50.950;3.676;2022-11-15T04:49:48;18.20;;;6.43;;
75892;SDS011;64572;50.950;3.676;2022-11-15T04:52:14;23.05;;;6.85;;
75892;SDS011;64572;50.950;3.676;2022-11-15T04:54:39;21.35;;;6.90;;
75892;SDS011;64572;50.950;3.676;2022-11-15T04:57:07;18.58;;;6.63;;
75892;SDS011;64572;50.950;3.676;2022-11-15T04:59:32;23.90;;;7.35;;
75892;SDS011;64572;50.950;3.676;2022-11-15T05:01:58;19.40;;;6.70;;
75892;SDS011;64572;50.950;3.676;2022-11-15T05:04:24;17.77;;;7.25;;
75892;SDS011;64572;50.950;3.676;2022-11-15T05:06:50;20.13;;;6.32;;
75892;SDS011;64572;50.950;3.676;2022-11-15T05:09:17;22.23;;;6.68;;
75892;SDS011;64572;50.950;3.676;2022-11-15T05:11:43;19.67;;;6.30;;
75892;SDS011;64572;50.950;3.676;2022-11-15T05:14:09;17.25;;;5.63;;
75892;SDS011;64572;50.950;3.676;2022-11-15T05:16:35;15.80;;;5.30;;
75892;SDS011;64572;50.950;3.676;2022-11-15T05:19:01;20.02;;;5.65;;
75892;SDS011;64572;50.950;3.676;2022-11-15T05:21:27;15.50;;;5.53;;
75892;SDS011;64572;50.950;3.676;2022-11-15T05:23:52;20.60;;;5.70;;
75892;SDS011;64572;50.950;3.676;2022-11-15T05:26:18;17.90;;;5.07;;
75892;SDS011;64572;50.950;3.676;2022-11-15T05:28:44;17.63;;;4.97;;
75892;SDS011;64572;50.950;3.676;2022-11-15T05:31:11;18.23;;;5.30;;
75892;SDS011;64572;50.950;3.676;2022-11-15T05:33:40;18.80;;;6.25;;
75892;SDS011;64572;50.950;3.676;2022-11-15T05:36:09;19.17;;;5.70;;
75892;SDS011;64572;50.950;3.676;2022-11-15T05:38:43;17.05;;;6.22;;
75892;SDS011;64572;50.950;3.676;2022-11-15T05:41:10;18.85;;;6.05;;
75892;SDS011;64572;50.950;3.676;2022-11-15T05:43:38;21.73;;;6.77;;
75892;SDS011;64572;50.950;3.676;2022-11-15T05:46:05;16.13;;;6.63;;
75892;SDS011;64572;50.950;3.676;2022-11-15T05:48:31;16.92;;;6.20;;
75892;SDS011;64572;50.950;3.676;2022-11-15T05:51:01;18.08;;;7.45;;
75892;SDS011;64572;50.950;3.676;2022-11-15T05:53:29;21.63;;;7.72;;
75892;SDS011;64572;50.950;3.676;2022-11-15T05:55:55;19.48;;;7.75;;
75892;SDS011;64572;50.950;3.676;2022-11-15T05:58:21;20.27;;;8.52;;
75892;SDS011;64572;50.950;3.676;2022-11-15T06:00:47;23.73;;;8.27;;
75892;SDS011;64572;50.950;3.676;2022-11-15T06:03:13;19.08;;;7.80;;
75892;SDS011;64572;50.950;3.676;2022-11-15T06:05:39;20.23;;;7.82;;
75892;SDS011;64572;50.950;3.676;2022-11-15T06:08:05;19.33;;;7.68;;
75892;SDS011;64572;50.950;3.676;2022-11-15T06:10:30;22.70;;;8.07;;
75892;SDS011;64572;50.950;3.676;2022-11-15T06:12:57;18.67;;;8.13;;
75892;SDS011;64572;50.950;3.676;2022-11-15T06:15:24;18.30;;;8.10;;
75892;SDS011;64572;50.950;3.676;2022-11-15T06:17:50;18.58;;;8.07;;
75892;SDS011;64572;50.950;3.676;2022-11-15T06:20:15;26.05;;;9.88;;
75892;SDS011;64572;50.950;3.676;2022-11-15T06:22:41;19.05;;;9.23;;
75892;SDS011;64572;50.950;3.676;2022-11-15T06:25:07;24.42;;;10.02;;
75892;SDS011;64572;50.950;3.676;2022-11-15T06:27:33;24.52;;;9.75;;
75892;SDS011;64572;50.950;3.676;2022-11-15T06:29:58;22.73;;;10.35;;
75892;SDS011;64572;50.950;3.676;2022-11-15T06:32:24;20.90;;;9.98;;
75892;SDS011;64572;50.950;3.676;2022-11-15T06:34:50;18.83;;;9.77;;
75892;SDS011;64572;50.950;3.676;2022-11-15T06:37:15;19.10;;;10.30;;
75892;SDS011;64572;50.950;3.676;2022-11-15T06:39:41;20.35;;;8.77;;
75892;SDS011;64572;50.950;3.676;2022-11-15T06:42:08;19.55;;;9.77;;
75892;SDS011;64572;50.950;3.676;2022-11-15T06:44:34;20.27;;;8.95;;
75892;SDS011;64572;50.950;3.676;2022-11-15T06:46:59;19.58;;;8.95;;
75892;SDS011;64572;50.950;3.676;2022-11-15T06:49:25;18.38;;;7.95;;
75892;SDS011;64572;50.950;3.676;2022-11-15T06:51:50;16.15;;;8.05;;
75892;SDS011;64572;50.950;3.676;2022-11-15T06:54:16;19.25;;;8.23;;
75892;SDS011;64572;50.950;3.676;2022-11-15T06:56:42;15.02;;;7.20;;
75892;SDS011;64572;50.950;3.676;2022-11-15T06:59:07;17.00;;;7.60;;
75892;SDS011;64572;50.950;3.676;2022-11-15T07:01:33;22.70;;;8.10;;
75892;SDS011;64572;50.950;3.676;2022-11-15T07:03:59;17.42;;;8.30;;
75892;SDS011;64572;50.950;3.676;2022-11-15T07:06:24;18.20;;;8.13;;
75892;SDS011;64572;50.950;3.676;2022-11-15T07:08:50;16.88;;;8.57;;
75892;SDS011;64572;50.950;3.676;2022-11-15T07:11:16;17.42;;;8.50;;
75892;SDS011;64572;50.950;3.676;2022-11-15T07:13:41;20.88;;;8.02;;
75892;SDS011;64572;50.950;3.676;2022-11-15T07:16:08;23.30;;;8.30;;
75892;SDS011;64572;50.950;3.676;2022-11-15T07:18:35;19.30;;;8.25;;
75892;SDS011;64572;50.950;3.676;2022-11-15T07:21:03;16.95;;;7.78;;
75892;SDS011;64572;50.950;3.676;2022-11-15T07:23:30;23.00;;;8.50;;
75892;SDS011;64572;50.950;3.676;2022-11-15T07:25:56;14.43;;;7.88;;
75892;SDS011;64572;50.950;3.676;2022-11-15T07:28:23;17.92;;;7.65;;
75892;SDS011;64572;50.950;3.676;2022-11-15T07:30:49;18.10;;;7.38;;
75892;SDS011;64572;50.950;3.676;2022-11-15T07:33:14;19.13;;;7.90;;
75892;SDS011;64572;50.950;3.676;2022-11-15T07:35:40;24.55;;;7.10;;
75892;SDS011;64572;50.950;3.676;2022-11-15T07:38:07;17.27;;;7.50;;
75892;SDS011;64572;50.950;3.676;2022-11-15T07:40:33;21.52;;;7.53;;
75892;SDS011;64572;50.950;3.676;2022-11-15T07:43:00;20.25;;;6.70;;
75892;SDS011;64572;50.950;3.676;2022-11-15T07:45:30;14.75;;;6.13;;
75892;SDS011;64572;50.950;3.676;2022-11-15T07:47:56;20.25;;;7.60;;
75892;SDS011;64572;50.950;3.676;2022-11-15T07:50:22;15.15;;;6.90;;
75892;SDS011;64572;50.950;3.676;2022-11-15T07:52:55;15.63;;;7.28;;
75892;SDS011;64572;50.950;3.676;2022-11-15T07:55:22;17.70;;;7.22;;
75892;SDS011;64572;50.950;3.676;2022-11-15T07:57:49;15.10;;;7.30;;
75892;SDS011;64572;50.950;3.676;2022-11-15T08:00:15;21.05;;;7.50;;
75892;SDS011;64572;50.950;3.676;2022-11-15T08:02:41;19.73;;;6.53;;
75892;SDS011;64572;50.950;3.676;2022-11-15T08:05:06;16.20;;;6.00;;
75892;SDS011;64572;50.950;3.676;2022-11-15T08:07:32;15.88;;;6.28;;
75892;SDS011;64572;50.950;3.676;2022-11-15T08:09:58;16.10;;;6.22;;
75892;SDS011;64572;50.950;3.676;2022-11-15T08:12:26;13.50;;;5.72;;
75892;SDS011;64572;50.950;3.676;2022-11-15T08:14:55;14.80;;;5.53;;
75892;SDS011;64572;50.950;3.676;2022-11-15T08:17:21;14.48;;;5.72;;
75892;SDS011;64572;50.950;3.676;2022-11-15T08:19:50;14.95;;;5.65;;
75892;SDS011;64572;50.950;3.676;2022-11-15T08:22:16;15.88;;;5.47;;
75892;SDS011;64572;50.950;3.676;2022-11-15T08:24:43;15.73;;;5.00;;
75892;SDS011;64572;50.950;3.676;2022-11-15T08:27:09;15.68;;;4.90;;
75892;SDS011;64572;50.950;3.676;2022-11-15T08:29:43;13.23;;;4.60;;
75892;SDS011;64572;50.950;3.676;2022-11-15T08:32:09;12.20;;;4.53;;
75892;SDS011;64572;50.950;3.676;2022-11-15T08:34:35;21.65;;;4.63;;
75892;SDS011;64572;50.950;3.676;2022-11-15T08:37:02;14.80;;;4.40;;
75892;SDS011;64572;50.950;3.676;2022-11-15T08:39:27;11.98;;;4.43;;
75892;SDS011;64572;50.950;3.676;2022-11-15T08:41:53;14.32;;;4.00;;
75892;SDS011;64572;50.950;3.676;2022-11-15T08:44:19;11.40;;;4.15;;
75892;SDS011;64572;50.950;3.676;2022-11-15T08:46:47;18.17;;;4.05;;
75892;SDS011;64572;50.950;3.676;2022-11-15T08:49:13;12.90;;;4.32;;
75892;SDS011;64572;50.950;3.676;2022-11-15T08:51:38;14.07;;;4.15;;
75892;SDS011;64572;50.950;3.676;2022-11-15T08:54:04;14.43;;;3.97;;
75892;SDS011;64572;50.950;3.676;2022-11-15T08:56:30;12.73;;;3.83;;
75892;SDS011;64572;50.950;3.676;2022-11-15T08:58:55;17.50;;;4.28;;
75892;SDS011;64572;50.950;3.676;2022-11-15T09:01:21;13.80;;;3.45;;
75892;SDS011;64572;50.950;3.676;2022-11-15T09:03:47;14.07;;;3.20;;
75892;SDS011;64572;50.950;3.676;2022-11-15T09:06:13;11.07;;;3.60;;
75892;SDS011;64572;50.950;3.676;2022-11-15T09:08:39;12.13;;;3.08;;
75892;SDS011;64572;50.950;3.676;2022-11-15T09:11:05;11.77;;;2.90;;
75892;SDS011;64572;50.950;3.676;2022-11-15T09:13:32;13.63;;;2.73;;
75892;SDS011;64572;50.950;3.676;2022-11-15T09:16:01;13.63;;;2.92;;
75892;SDS011;64572;50.950;3.676;2022-11-15T09:18:27;11.95;;;2.85;;
75892;SDS011;64572;50.950;3.676;2022-11-15T09:20:57;11.00;;;2.78;;
75892;SDS011;64572;50.950;3.676;2022-11-15T09:23:23;15.18;;;2.67;;
75892;SDS011;64572;50.950;3.676;2022-11-15T09:25:49;14.55;;;3.00;;
75892;SDS011;64572;50.950;3.676;2022-11-15T09:28:15;13.43;;;2.35;;
75892;SDS011;64572;50.950;3.676;2022-11-15T09:30:41;8.50;;;2.08;;
75892;SDS011;64572;50.950;3.676;2022-11-15T09:33:07;9.27;;;2.22;;
75892;SDS011;64572;50.950;3.676;2022-11-15T09:35:34;12.07;;;2.35;;
75892;SDS011;64572;50.950;3.676;2022-11-15T09:37:59;12.57;;;2.00;;
75892;SDS011;64572;50.950;3.676;2022-11-15T09:40:25;13.60;;;2.47;;
75892;SDS011;64572;50.950;3.676;2022-11-15T09:42:55;11.52;;;2.38;;
75892;SDS011;64572;50.950;3.676;2022-11-15T09:48:35;9.52;;;1.85;;
75892;SDS011;64572;50.950;3.676;2022-11-15T09:51:27;10.82;;;2.25;;
75892;SDS011;64572;50.950;3.676;2022-11-15T09:53:57;14.63;;;2.60;;
75892;SDS011;64572;50.950;3.676;2022-11-15T09:56:32;14.45;;;2.42;;
75892;SDS011;64572;50.950;3.676;2022-11-15T09:59:08;10.00;;;2.40;;
75892;SDS011;64572;50.950;3.676;2022-11-15T10:01:56;12.60;;;2.30;;
75892;SDS011;64572;50.950;3.676;2022-11-15T10:04:35;11.27;;;2.38;;
75892;SDS011;64572;50.950;3.676;2022-11-15T10:07:10;12.82;;;2.97;;
75892;SDS011;64572;50.950;3.676;2022-11-15T10:12:17;9.00;;;2.15;;
75892;SDS011;64572;50.950;3.676;2022-11-15T10:14:45;11.50;;;2.25;;
75892;SDS011;64572;50.950;3.676;2022-11-15T10:22:56;14.80;;;2.25;;
75892;SDS011;64572;50.950;3.676;2022-11-15T10:25:26;13.05;;;2.08;;
75892;SDS011;64572;50.950;3.676;2022-11-15T10:27:57;14.98;;;3.00;;
75892;SDS011;64572;50.950;3.676;2022-11-15T10:30:41;11.55;;;2.17;;
75892;SDS011;64572;50.950;3.676;2022-11-15T10:41:20;9.23;;;1.90;;
75892;SDS011;64572;50.950;3.676;2022-11-15T10:51:51;12.38;;;2.03;;
75892;SDS011;64572;50.950;3.676;2022-11-15T10:57:06;13.93;;;2.22;;
75892;SDS011;64572;50.950;3.676;2022-11-15T10:59:39;15.25;;;1.88;;
75892;SDS011;64572;50.950;3.676;2022-11-15T11:05:20;9.40;;;1.83;;
75892;SDS011;64572;50.950;3.676;2022-11-15T11:07:55;13.85;;;1.88;;
75892;SDS011;64572;50.950;3.676;2022-11-15T11:10:54;8.25;;;1.70;;
75892;SDS011;64572;50.950;3.676;2022-11-15T11:13:26;11.32;;;1.85;;
75892;SDS011;64572;50.950;3.676;2022-11-15T11:19:01;14.27;;;1.80;;
75892;SDS011;64572;50.950;3.676;2022-11-15T11:30:02;10.27;;;1.75;;
75892;SDS011;64572;50.950;3.676;2022-11-15T11:46:19;11.38;;;2.08;;
75892;SDS011;64572;50.950;3.676;2022-11-15T11:49:01;11.13;;;2.08;;
75892;SDS011;64572;50.950;3.676;2022-11-15T11:51:34;11.80;;;1.90;;
75892;SDS011;64572;50.950;3.676;2022-11-15T12:00:18;10.48;;;1.83;;
75892;SDS011;64572;50.950;3.676;2022-11-15T12:02:47;7.30;;;1.70;;
75892;SDS011;64572;50.950;3.676;2022-11-15T12:05:29;8.25;;;1.90;;
75892;SDS011;64572;50.950;3.676;2022-11-15T12:08:38;9.40;;;1.77;;
75892;SDS011;64572;50.950;3.676;2022-11-15T12:14:29;10.20;;;1.60;;
75892;SDS011;64572;50.950;3.676;2022-11-15T12:17:04;10.18;;;1.63;;
75892;SDS011;64572;50.950;3.676;2022-11-15T12:19:29;10.50;;;1.83;;
75892;SDS011;64572;50.950;3.676;2022-11-15T12:22:04;11.23;;;1.90;;
75892;SDS011;64572;50.950;3.676;2022-11-15T12:24:48;10.15;;;1.70;;
75892;SDS011;64572;50.950;3.676;2022-11-15T12:27:55;8.48;;;1.98;;
75892;SDS011;64572;50.950;3.676;2022-11-15T12:30:27;8.35;;;1.83;;
75892;SDS011;64572;50.950;3.676;2022-11-15T12:33:09;8.52;;;2.08;;
75892;SDS011;64572;50.950;3.676;2022-11-15T12:36:05;6.78;;;1.60;;
75892;SDS011;64572;50.950;3.676;2022-11-15T12:38:55;11.15;;;2.00;;
75892;SDS011;64572;50.950;3.676;2022-11-15T12:41:28;11.25;;;1.80;;
75892;SDS011;64572;50.950;3.676;2022-11-15T12:43:55;9.50;;;1.80;;
75892;SDS011;64572;50.950;3.676;2022-11-15T12:49:02;9.27;;;1.90;;
75892;SDS011;64572;50.950;3.676;2022-11-15T12:59:47;6.50;;;1.80;;
75892;SDS011;64572;50.950;3.676;2022-11-15T13:02:23;12.70;;;2.33;;
75892;SDS011;64572;50.950;3.676;2022-11-15T13:04:50;8.88;;;1.88;;
75892;SDS011;64572;50.950;3.676;2022-11-15T13:08:17;8.60;;;1.90;;
75892;SDS011;64572;50.950;3.676;2022-11-15T13:22:44;6.78;;;1.85;;
75892;SDS011;64572;50.950;3.676;2022-11-15T13:28:17;10.80;;;1.60;;
75892;SDS011;64572;50.950;3.676;2022-11-15T13:30:53;7.70;;;1.80;;
75892;SDS011;64572;50.950;3.676;2022-11-15T13:33:36;8.80;;;2.20;;
75892;SDS011;64572;50.950;3.676;2022-11-15T13:38:40;7.90;;;1.70;;
75892;SDS011;64572;50.950;3.676;2022-11-15T13:43:57;7.03;;;1.85;;
75892;SDS011;64572;50.950;3.676;2022-11-15T13:46:25;9.52;;;1.88;;
75892;SDS011;64572;50.950;3.676;2022-11-15T13:48:59;9.93;;;2.10;;
75892;SDS011;64572;50.950;3.676;2022-11-15T13:54:29;7.25;;;1.80;;
75892;SDS011;64572;50.950;3.676;2022-11-15T14:01:55;7.53;;;1.98;;
75892;SDS011;64572;50.950;3.676;2022-11-15T14:04:23;6.65;;;1.88;;
75892;SDS011;64572;50.950;3.676;2022-11-15T14:06:55;5.78;;;1.85;;
75892;SDS011;64572;50.950;3.676;2022-11-15T14:09:30;8.75;;;2.00;;
75892;SDS011;64572;50.950;3.676;2022-11-15T14:11:58;7.25;;;2.17;;
75892;SDS011;64572;50.950;3.676;2022-11-15T14:14:26;9.60;;;2.22;;
75892;SDS011;64572;50.950;3.676;2022-11-15T14:16:57;8.88;;;2.33;;
75892;SDS011;64572;50.950;3.676;2022-11-15T14:24:39;7.70;;;2.20;;
75892;SDS011;64572;50.950;3.676;2022-11-15T14:30:01;9.70;;;2.83;;
75892;SDS011;64572;50.950;3.676;2022-11-15T14:32:28;11.40;;;2.80;;
75892;SDS011;64572;50.950;3.676;2022-11-15T14:34:56;12.35;;;3.13;;
75892;SDS011;64572;50.950;3.676;2022-11-15T14:37:27;13.95;;;3.13;;
75892;SDS011;64572;50.950;3.676;2022-11-15T14:40:00;10.15;;;3.10;;
75892;SDS011;64572;50.950;3.676;2022-11-15T14:42:27;10.88;;;3.15;;
75892;SDS011;64572;50.950;3.676;2022-11-15T14:44:53;10.98;;;2.97;;
75892;SDS011;64572;50.950;3.676;2022-11-15T14:47:19;10.48;;;3.58;;
75892;SDS011;64572;50.950;3.676;2022-11-15T14:49:45;12.73;;;3.38;;
75892;SDS011;64572;50.950;3.676;2022-11-15T14:52:16;12.93;;;3.65;;
75892;SDS011;64572;50.950;3.676;2022-11-15T14:54:49;13.25;;;3.72;;
75892;SDS011;64572;50.950;3.676;2022-11-15T14:57:15;9.02;;;3.47;;
75892;SDS011;64572;50.950;3.676;2022-11-15T14:59:40;9.57;;;3.67;;
75892;SDS011;64572;50.950;3.676;2022-11-15T15:02:25;12.75;;;4.20;;
75892;SDS011;64572;50.950;3.676;2022-11-15T15:04:52;10.88;;;3.95;;
75892;SDS011;64572;50.950;3.676;2022-11-15T15:07:18;10.60;;;3.88;;
75892;SDS011;64572;50.950;3.676;2022-11-15T15:09:44;14.43;;;4.22;;
75892;SDS011;64572;50.950;3.676;2022-11-15T15:12:20;12.30;;;4.90;;
75892;SDS011;64572;50.950;3.676;2022-11-15T15:14:48;14.50;;;5.30;;
75892;SDS011;64572;50.950;3.676;2022-11-15T15:17:15;11.70;;;4.63;;
75892;SDS011;64572;50.950;3.676;2022-11-15T15:19:41;13.07;;;4.88;;
75892;SDS011;64572;50.950;3.676;2022-11-15T15:22:12;13.07;;;5.20;;
75892;SDS011;64572;50.950;3.676;2022-11-15T15:24:40;13.07;;;5.25;;
75892;SDS011;64572;50.950;3.676;2022-11-15T15:27:06;13.50;;;5.13;;
75892;SDS011;64572;50.950;3.676;2022-11-15T15:29:32;11.77;;;5.50;;
75892;SDS011;64572;50.950;3.676;2022-11-15T15:31:57;12.27;;;5.38;;
75892;SDS011;64572;50.950;3.676;2022-11-15T15:34:23;15.73;;;5.28;;
75892;SDS011;64572;50.950;3.676;2022-11-15T15:36:49;14.27;;;5.22;;
75892;SDS011;64572;50.950;3.676;2022-11-15T15:39:14;12.02;;;5.13;;
75892;SDS011;64572;50.950;3.676;2022-11-15T15:41:40;14.38;;;5.68;;
75892;SDS011;64572;50.950;3.676;2022-11-15T15:44:06;15.02;;;5.20;;
75892;SDS011;64572;50.950;3.676;2022-11-15T15:46:31;15.00;;;5.43;;
75892;SDS011;64572;50.950;3.676;2022-11-15T15:48:59;14.30;;;5.13;;
75892;SDS011;64572;50.950;3.676;2022-11-15T15:51:24;15.60;;;5.60;;
75892;SDS011;64572;50.950;3.676;2022-11-15T15:53:50;13.82;;;4.93;;
75892;SDS011;64572;50.950;3.676;2022-11-15T15:56:17;13.77;;;5.78;;
75892;SDS011;64572;50.950;3.676;2022-11-15T15:58:43;10.13;;;4.40;;
75892;SDS011;64572;50.950;3.676;2022-11-15T16:01:08;12.98;;;5.55;;
75892;SDS011;64572;50.950;3.676;2022-11-15T16:03:34;12.93;;;4.43;;
75892;SDS011;64572;50.950;3.676;2022-11-15T16:06:00;12.27;;;5.18;;
75892;SDS011;64572;50.950;3.676;2022-11-15T16:08:29;9.90;;;4.32;;
75892;SDS011;64572;50.950;3.676;2022-11-15T16:10:55;9.82;;;4.05;;
75892;SDS011;64572;50.950;3.676;2022-11-15T16:13:21;11.05;;;4.15;;
75892;SDS011;64572;50.950;3.676;2022-11-15T16:15:48;10.77;;;4.35;;
75892;SDS011;64572;50.950;3.676;2022-11-15T16:18:17;9.10;;;3.42;;
75892;SDS011;64572;50.950;3.676;2022-11-15T16:20:47;8.65;;;3.58;;
75892;SDS011;64572;50.950;3.676;2022-11-15T16:23:15;8.40;;;3.30;;
75892;SDS011;64572;50.950;3.676;2022-11-15T16:26:00;9.02;;;3.50;;
75892;SDS011;64572;50.950;3.676;2022-11-15T16:28:31;10.68;;;3.85;;
75892;SDS011;64572;50.950;3.676;2022-11-15T16:31:01;10.88;;;4.43;;
75892;SDS011;64572;50.950;3.676;2022-11-15T16:33:33;13.43;;;4.15;;
75892;SDS011;64572;50.950;3.676;2022-11-15T16:35:58;11.30;;;4.43;;
75892;SDS011;64572;50.950;3.676;2022-11-15T16:38:25;11.25;;;4.30;;
75892;SDS011;64572;50.950;3.676;2022-11-15T16:40:51;10.07;;;4.13;;
75892;SDS011;64572;50.950;3.676;2022-11-15T16:43:17;9.88;;;4.50;;
75892;SDS011;64572;50.950;3.676;2022-11-15T16:45:42;10.80;;;4.60;;
75892;SDS011;64572;50.950;3.676;2022-11-15T16:50:47;9.32;;;3.85;;
75892;SDS011;64572;50.950;3.676;2022-11-15T16:53:13;16.30;;;10.25;;
75892;SDS011;64572;50.950;3.676;2022-11-15T16:55:38;11.15;;;5.60;;
75892;SDS011;64572;50.950;3.676;2022-11-15T16:58:04;10.18;;;4.28;;
75892;SDS011;64572;50.950;3.676;2022-11-15T17:00:30;10.60;;;5.10;;
75892;SDS011;64572;50.950;3.676;2022-11-15T17:02:56;13.43;;;6.13;;
75892;SDS011;64572;50.950;3.676;2022-11-15T17:05:22;11.10;;;5.50;;
75892;SDS011;64572;50.950;3.676;2022-11-15T17:07:51;10.73;;;5.88;;
75892;SDS011;64572;50.950;3.676;2022-11-15T17:10:18;12.93;;;6.57;;
75892;SDS011;64572;50.950;3.676;2022-11-15T17:12:45;11.98;;;5.70;;
75892;SDS011;64572;50.950;3.676;2022-11-15T17:15:11;12.73;;;6.72;;
75892;SDS011;64572;50.950;3.676;2022-11-15T17:17:37;13.70;;;5.90;;
75892;SDS011;64572;50.950;3.676;2022-11-15T17:20:04;13.35;;;7.10;;
75892;SDS011;64572;50.950;3.676;2022-11-15T17:22:34;9.85;;;4.95;;
75892;SDS011;64572;50.950;3.676;2022-11-15T17:25:00;8.57;;;3.67;;
75892;SDS011;64572;50.950;3.676;2022-11-15T17:27:27;10.38;;;5.40;;
75892;SDS011;64572;50.950;3.676;2022-11-15T17:29:52;11.02;;;5.10;;
75892;SDS011;64572;50.950;3.676;2022-11-15T17:32:18;11.65;;;5.68;;
75892;SDS011;64572;50.950;3.676;2022-11-15T17:34:43;10.82;;;4.80;;